Time;durP1;ratioP1;P1;durP2;ratioP2;P2;SDS_P1;SDS_P2;PMS_P1;PMS_P2;Temp;Humidity;BMP_temperature;BMP_pressure;BME280_temperature;BME280_humidity;BME280_pressure;Samples;Min_cycle;Max_cycle;Signal;HPM_P1;HPM_P2
2022/08/13 00:00:10;;;;;;;64.88;52.65;;;28.10;48.60;;;;;;4952653;28;91070;-50
2022/08/13 00:02:43;;;;;;;65.63;52.83;;;28.10;48.70;;;;;;4945423;28;90112;-51
2022/08/13 00:05:09;;;;;;;64.75;52.58;;;28.10;48.60;;;;;;4958768;28;89854;-53
2022/08/13 00:07:37;;;;;;;64.72;52.55;;;28.10;48.60;;;;;;4955377;28;89000;-53
2022/08/13 00:10:08;;;;;;;65.47;52.65;;;28.10;48.60;;;;;;4949013;28;90433;-50
2022/08/13 00:15:29;;;;;;;64.70;52.70;;;28.10;48.70;;;;;;4951315;28;92045;-52
2022/08/13 00:17:58;;;;;;;64.05;52.35;;;28.10;48.60;;;;;;4949299;28;92170;-51
2022/08/13 00:20:27;;;;;;;64.75;52.60;;;28.00;48.70;;;;;;4948342;28;89858;-49
2022/08/13 00:22:54;;;;;;;64.00;52.60;;;28.10;48.70;;;;;;4962096;28;90988;-50
2022/08/13 00:25:20;;;;;;;64.60;52.53;;;28.10;48.80;;;;;;4956544;28;90237;-52
2022/08/13 00:27:56;;;;;;;64.20;52.45;;;28.00;48.60;;;;;;4948633;28;89499;-50
2022/08/13 00:30:33;;;;;;;64.05;52.40;;;28.00;48.70;;;;;;4950440;28;90083;-50
2022/08/13 00:33:12;;;;;;;63.92;52.55;;;28.00;48.70;;;;;;4944483;28;92840;-54
2022/08/13 00:35:42;;;;;;;64.47;52.47;;;28.00;48.70;;;;;;4949508;28;94950;-53
2022/08/13 00:38:11;;;;;;;64.68;52.35;;;28.00;48.70;;;;;;4959914;28;90299;-51
2022/08/13 00:40:41;;;;;;;64.68;52.53;;;28.00;48.80;;;;;;4948709;28;90552;-51
2022/08/13 00:43:07;;;;;;;64.20;52.27;;;28.00;48.70;;;;;;4944508;28;90937;-51
2022/08/13 00:45:33;;;;;;;64.05;52.53;;;28.00;48.80;;;;;;4946701;28;89963;-53
2022/08/13 00:50:44;;;;;;;65.47;52.20;;;28.00;48.80;;;;;;4954522;28;89826;-52
2022/08/13 00:53:17;;;;;;;64.82;52.45;;;28.00;48.80;;;;;;4945810;28;91708;-52
2022/08/13 00:55:48;;;;;;;64.35;52.25;;;27.90;48.80;;;;;;4949085;28;90346;-50
2022/08/13 00:58:18;;;;;;;64.97;52.45;;;27.90;49.50;;;;;;4956047;28;89100;-53
2022/08/13 01:00:53;;;;;;;64.30;52.53;;;27.90;48.90;;;;;;4957971;28;93299;-51
2022/08/13 01:03:19;;;;;;;64.47;52.22;;;27.90;48.90;;;;;;4953214;28;91859;-50
2022/08/13 01:05:47;;;;;;;63.83;52.28;;;27.90;49.00;;;;;;4952140;28;90854;-48
2022/08/13 01:08:16;;;;;;;63.83;52.17;;;27.90;49.00;;;;;;4954205;28;90484;-49
2022/08/13 01:10:49;;;;;;;65.05;52.65;;;27.90;49.00;;;;;;4949236;28;90161;-51
2022/08/13 01:13:17;;;;;;;63.78;52.22;;;27.90;49.10;;;;;;4953892;28;90178;-53
2022/08/13 01:15:44;;;;;;;63.72;52.15;;;27.80;49.00;;;;;;4949937;28;89964;-53
2022/08/13 01:18:13;;;;;;;64.03;52.00;;;27.80;49.10;;;;;;4955222;28;89694;-52
2022/08/13 01:20:48;;;;;;;63.60;52.05;;;27.80;49.00;;;;;;4956496;28;94287;-53
2022/08/13 01:23:16;;;;;;;64.47;52.60;;;27.80;49.00;;;;;;4958086;28;94085;-52
2022/08/13 01:25:44;;;;;;;65.32;52.15;;;27.80;49.10;;;;;;4946451;28;90459;-51
2022/08/13 01:28:12;;;;;;;64.35;52.20;;;27.80;49.10;;;;;;4953014;28;90346;-51
2022/08/13 01:30:44;;;;;;;63.95;52.30;;;27.80;49.10;;;;;;4952999;28;91088;-51
2022/08/13 01:33:11;;;;;;;63.72;52.15;;;27.80;49.10;;;;;;4952064;28;90192;-50
2022/08/13 01:35:38;;;;;;;63.88;52.10;;;27.80;49.10;;;;;;4955432;28;92026;-48
2022/08/13 01:38:04;;;;;;;64.43;51.90;;;27.80;49.20;;;;;;4952755;28;90454;-52
2022/08/13 01:40:30;;;;;;;63.95;52.15;;;27.70;49.10;;;;;;4959765;28;92718;-52
2022/08/13 01:42:57;;;;;;;63.85;52.28;;;27.70;49.20;;;;;;4958115;28;90110;-50
2022/08/13 01:45:24;;;;;;;63.88;52.17;;;27.70;49.20;;;;;;4944453;28;90185;-54
2022/08/13 01:50:35;;;;;;;63.53;52.03;;;27.70;49.20;;;;;;4951235;28;90217;-53
2022/08/13 01:53:05;;;;;;;63.95;52.38;;;27.60;49.20;;;;;;4951011;28;90525;-50
2022/08/13 01:55:38;;;;;;;63.40;51.95;;;27.70;49.30;;;;;;4951587;28;92118;-50
2022/08/13 01:58:07;;;;;;;64.15;52.35;;;27.60;49.20;;;;;;4954831;28;90215;-51
2022/08/13 02:00:33;;;;;;;63.75;52.05;;;27.60;49.30;;;;;;4946552;28;91008;-52
2022/08/13 02:03:04;;;;;;;63.75;52.25;;;27.60;49.30;;;;;;4950390;28;90911;-51
2022/08/13 02:05:30;;;;;;;63.53;52.13;;;27.60;49.30;;;;;;4952237;28;89916;-51
2022/08/13 02:07:57;;;;;;;63.30;52.03;;;27.60;49.30;;;;;;4952934;28;92203;-53
2022/08/13 02:10:23;;;;;;;63.58;52.03;;;27.60;49.30;;;;;;4950321;28;89889;-49
2022/08/13 02:12:50;;;;;;;63.45;51.80;;;27.60;49.30;;;;;;4955717;28;91024;-49
2022/08/13 02:15:16;;;;;;;63.17;51.95;;;27.50;49.30;;;;;;4955766;28;91168;-52
2022/08/13 02:17:42;;;;;;;64.55;52.13;;;27.50;49.30;;;;;;4943513;28;90513;-52
2022/08/13 02:20:17;;;;;;;63.50;51.97;;;27.50;49.40;;;;;;4956228;28;90886;-52
2022/08/13 02:22:45;;;;;;;63.85;51.92;;;27.50;49.40;;;;;;4958573;28;90803;-54
2022/08/13 02:25:15;;;;;;;63.67;51.90;;;27.50;50.10;;;;;;4951844;28;91742;-50
2022/08/13 02:27:41;;;;;;;63.23;51.67;;;27.50;49.50;;;;;;4955029;28;91417;-50
2022/08/13 02:30:09;;;;;;;63.38;51.85;;;27.50;49.50;;;;;;4943422;28;89988;-52
2022/08/13 02:32:37;;;;;;;63.30;51.92;;;27.50;49.50;;;;;;4951470;28;90376;-52
2022/08/13 02:35:04;;;;;;;64.10;52.25;;;27.40;49.50;;;;;;4953008;28;89979;-50
2022/08/13 02:37:32;;;;;;;63.47;51.88;;;27.50;49.60;;;;;;4952914;28;90436;-53
2022/08/13 02:40:00;;;;;;;63.65;52.13;;;27.40;49.50;;;;;;4952831;28;91914;-52
2022/08/13 02:42:28;;;;;;;63.22;51.92;;;27.40;49.50;;;;;;4952501;28;95874;-51
2022/08/13 02:44:54;;;;;;;63.30;52.03;;;27.40;49.50;;;;;;4949062;28;91873;-53
2022/08/13 02:47:21;;;;;;;63.40;52.13;;;27.40;49.50;;;;;;4954566;28;90278;-52
2022/08/13 02:49:51;;;;;;;63.03;51.88;;;27.40;49.50;;;;;;4954626;28;90223;-52
2022/08/13 02:52:19;;;;;;;63.70;52.08;;;27.40;49.60;;;;;;4960612;28;90354;-53
2022/08/13 02:54:47;;;;;;;63.45;52.13;;;27.40;49.70;;;;;;4954099;28;90829;-51
2022/08/13 02:57:13;;;;;;;63.00;51.70;;;27.40;49.70;;;;;;4949593;28;90102;-50
2022/08/13 02:59:41;;;;;;;63.47;52.10;;;27.40;49.70;;;;;;4950167;28;90213;-51
2022/08/13 03:02:08;;;;;;;62.80;51.67;;;27.40;50.30;;;;;;4955956;28;89466;-52
2022/08/13 03:04:35;;;;;;;63.03;51.78;;;27.30;49.70;;;;;;4954948;28;89979;-51
2022/08/13 03:07:01;;;;;;;63.53;51.85;;;27.30;49.70;;;;;;4949607;28;91094;-53
2022/08/13 03:09:28;;;;;;;62.97;51.83;;;27.30;49.80;;;;;;4955970;28;90877;-49
2022/08/13 03:11:58;;;;;;;63.00;51.72;;;27.30;50.40;;;;;;4957774;28;91620;-53
2022/08/13 03:14:24;;;;;;;63.05;51.97;;;27.30;49.90;;;;;;4944100;28;90854;-48
2022/08/13 03:16:49;;;;;;;63.42;51.80;;;27.30;49.80;;;;;;4947848;28;89927;-53
2022/08/13 03:19:15;;;;;;;63.00;51.83;;;27.20;49.90;;;;;;4947734;28;90935;-51
2022/08/13 03:21:45;;;;;;;62.90;51.47;;;27.20;49.90;;;;;;4956308;28;91372;-51
2022/08/13 03:24:14;;;;;;;64.38;51.50;;;27.20;49.90;;;;;;4949198;28;92960;-52
2022/08/13 03:26:40;;;;;;;62.60;51.67;;;27.20;49.90;;;;;;4946667;28;89543;-50
2022/08/13 03:29:07;;;;;;;62.45;51.53;;;27.20;49.90;;;;;;4951257;28;90458;-50
2022/08/13 03:31:34;;;;;;;62.58;51.45;;;27.10;50.00;;;;;;4951291;28;89710;-51
2022/08/13 03:34:01;;;;;;;64.57;51.72;;;27.20;50.10;;;;;;4944233;28;91147;-48
2022/08/13 03:36:29;;;;;;;62.80;51.75;;;27.20;50.10;;;;;;4946906;28;92184;-53
2022/08/13 03:38:56;;;;;;;62.90;51.63;;;27.10;50.10;;;;;;4956216;28;92796;-53
2022/08/13 03:41:23;;;;;;;62.72;51.70;;;27.10;50.10;;;;;;4946232;28;89999;-53
2022/08/13 03:43:49;;;;;;;62.67;51.63;;;27.10;50.10;;;;;;4947136;28;90152;-54
2022/08/13 03:46:24;;;;;;;63.33;51.65;;;27.00;50.20;;;;;;4952478;28;90166;-54
2022/08/13 03:48:50;;;;;;;62.95;51.55;;;27.10;50.30;;;;;;4957363;28;90179;-52
2022/08/13 03:51:22;;;;;;;63.03;51.67;;;27.00;50.30;;;;;;4952217;28;92448;-53
2022/08/13 03:53:53;;;;;;;63.15;51.78;;;27.10;50.40;;;;;;4947922;28;89919;-54
2022/08/13 03:56:20;;;;;;;;;;;27.10;50.30;;;;;;4944978;28;90084;-50
2022/08/13 03:58:46;;;;;;;62.85;51.33;;;27.00;50.30;;;;;;4949436;28;91189;-52
2022/08/13 04:01:15;;;;;;;62.45;51.42;;;27.00;50.40;;;;;;4951137;28;91352;-54
2022/08/13 04:03:41;;;;;;;62.50;51.53;;;27.00;50.40;;;;;;4951884;28;92837;-52
2022/08/13 04:06:15;;;;;;;62.33;51.60;;;27.00;50.40;;;;;;4946520;28;90543;-52
2022/08/13 04:08:41;;;;;;;62.90;51.35;;;27.00;50.40;;;;;;4954697;28;90746;-52
2022/08/13 04:11:11;;;;;;;62.30;51.45;;;26.90;50.40;;;;;;4950403;28;92496;-50
2022/08/13 04:13:38;;;;;;;63.67;51.55;;;26.90;51.00;;;;;;4948801;28;93585;-53
2022/08/13 04:16:10;;;;;;;63.95;51.65;;;26.90;50.50;;;;;;4942958;28;89913;-53
2022/08/13 04:18:36;;;;;;;62.75;51.50;;;26.90;50.60;;;;;;4952443;28;90075;-50
2022/08/13 04:21:08;;;;;;;62.83;51.42;;;26.90;50.60;;;;;;4952942;28;91666;-51
2022/08/13 04:23:38;;;;;;;62.72;51.55;;;26.90;50.50;;;;;;4955769;28;90588;-45
2022/08/13 04:26:04;;;;;;;62.47;51.35;;;26.90;50.60;;;;;;4953147;28;90301;-53
2022/08/13 04:28:29;;;;;;;62.50;51.60;;;26.80;50.60;;;;;;4952108;28;90960;-52
2022/08/13 04:30:56;;;;;;;62.10;51.22;;;26.80;50.60;;;;;;4948384;28;90541;-51
2022/08/13 04:33:22;;;;;;;62.25;51.42;;;26.80;50.70;;;;;;4954097;28;89661;-51
2022/08/13 04:35:47;;;;;;;62.22;51.33;;;26.80;50.70;;;;;;4947536;28;89792;-51
2022/08/13 04:38:14;;;;;;;62.00;51.15;;;26.80;50.70;;;;;;4954756;28;95599;-51
2022/08/13 04:40:45;;;;;;;62.42;51.22;;;26.80;50.80;;;;;;4950369;28;89066;-50
2022/08/13 04:43:12;;;;;;;62.55;51.17;;;26.80;50.70;;;;;;4948054;28;89929;-50
2022/08/13 04:45:39;;;;;;;62.20;51.35;;;26.70;50.70;;;;;;4952258;28;94434;-53
2022/08/13 04:48:12;;;;;;;62.03;51.20;;;26.70;50.70;;;;;;4958532;28;91423;-53
2022/08/13 04:50:40;;;;;;;62.65;51.38;;;26.80;50.80;;;;;;4958920;28;91597;-55
2022/08/13 04:53:07;;;;;;;62.17;51.42;;;26.80;50.80;;;;;;4952436;28;89916;-52
2022/08/13 04:55:35;;;;;;;62.63;51.38;;;26.70;50.80;;;;;;4950018;28;89937;-52
2022/08/13 04:58:02;;;;;;;61.95;51.22;;;26.70;50.80;;;;;;4950193;28;90727;-51
2022/08/13 05:00:32;;;;;;;61.63;50.88;;;26.70;50.80;;;;;;4954386;28;89891;-51
2022/08/13 05:03:16;;;;;;;62.70;51.40;;;26.70;50.80;;;;;;4952464;28;91840;-50
2022/08/13 05:05:44;;;;;;;62.28;51.15;;;26.70;50.90;;;;;;4960310;28;89519;-51
2022/08/13 05:08:15;;;;;;;62.00;51.25;;;26.70;50.90;;;;;;4954313;28;90854;-52
2022/08/13 05:10:41;;;;;;;61.95;51.22;;;26.70;50.90;;;;;;4956147;28;90405;-52
2022/08/13 05:13:27;;;;;;;62.30;51.45;;;26.70;51.00;;;;;;4948122;28;91533;-52
2022/08/13 05:15:56;;;;;;;62.33;51.45;;;26.70;50.90;;;;;;4950562;28;93011;-50
2022/08/13 05:18:22;;;;;;;62.30;51.28;;;26.70;51.00;;;;;;4949346;28;90059;-52
2022/08/13 05:20:48;;;;;;;62.40;51.33;;;26.70;50.90;;;;;;4953783;28;90284;-53
2022/08/13 05:23:14;;;;;;;62.25;51.30;;;26.60;50.90;;;;;;4956857;28;90545;-51
2022/08/13 05:25:43;;;;;;;62.30;51.15;;;26.70;50.90;;;;;;4955871;28;89803;-50
2022/08/13 05:28:09;;;;;;;62.22;51.15;;;26.60;50.90;;;;;;4948220;28;91209;-54
2022/08/13 05:30:38;;;;;;;62.80;51.35;;;26.60;51.00;;;;;;4953759;28;89086;-51
2022/08/13 05:33:22;;;;;;;62.08;51.08;;;26.70;51.00;;;;;;4955607;28;89616;-52
2022/08/13 05:35:50;;;;;;;62.25;51.15;;;26.70;51.00;;;;;;4946161;28;90188;-49
2022/08/13 05:38:18;;;;;;;62.25;51.40;;;26.60;50.90;;;;;;4952977;28;90923;-53
2022/08/13 05:40:43;;;;;;;62.30;51.25;;;26.70;51.00;;;;;;4954177;28;90893;-50
2022/08/13 05:43:17;;;;;;;62.85;51.33;;;26.60;50.90;;;;;;4955165;28;91156;-54
2022/08/13 05:45:47;;;;;;;61.95;51.17;;;26.70;51.00;;;;;;4949909;28;90681;-52
2022/08/13 05:48:12;;;;;;;62.03;51.35;;;26.70;51.00;;;;;;4944694;28;93916;-49
2022/08/13 05:50:38;;;;;;;62.28;51.25;;;26.60;51.00;;;;;;4951859;28;95186;-52
2022/08/13 05:53:09;;;;;;;62.45;51.42;;;26.70;51.00;;;;;;4948099;28;89877;-52
2022/08/13 05:55:40;;;;;;;62.30;51.35;;;26.70;51.00;;;;;;4955287;28;90511;-49
2022/08/13 05:58:09;;;;;;;62.38;51.25;;;26.70;50.90;;;;;;4946004;28;90207;-51
2022/08/13 06:03:27;;;;;;;62.03;51.33;;;26.70;50.90;;;;;;4941882;28;91077;-51
2022/08/13 06:05:58;;;;;;;62.40;51.33;;;26.70;50.80;;;;;;4952623;28;89515;-50
2022/08/13 06:08:29;;;;;;;62.45;51.45;;;26.70;50.80;;;;;;4950114;28;90196;-54
2022/08/13 06:11:00;;;;;;;62.40;51.50;;;26.70;50.80;;;;;;4952674;28;89714;-52
2022/08/13 06:13:28;;;;;;;61.90;51.38;;;26.70;50.80;;;;;;4949795;28;89911;-54
2022/08/13 06:15:58;;;;;;;62.47;51.47;;;26.80;50.80;;;;;;4951338;28;92164;-50
2022/08/13 06:18:32;;;;;;;61.80;51.10;;;26.70;50.80;;;;;;4956746;28;91292;-51
2022/08/13 06:20:59;;;;;;;62.53;51.22;;;26.70;50.80;;;;;;4952018;28;90439;-51
2022/08/13 06:23:27;;;;;;;62.13;51.33;;;26.70;50.70;;;;;;4945050;28;89968;-48
2022/08/13 06:25:54;;;;;;;62.55;51.35;;;26.80;50.70;;;;;;4955805;28;89915;-48
2022/08/13 06:28:22;;;;;;;62.10;51.40;;;26.80;50.60;;;;;;4953746;28;90873;-51
2022/08/13 06:30:52;;;;;;;62.05;51.08;;;26.80;50.60;;;;;;4942671;28;95844;-51
2022/08/13 06:33:22;;;;;;;62.10;51.22;;;26.80;50.50;;;;;;4948104;28;91151;-49
2022/08/13 06:35:59;;;;;;;62.28;51.30;;;26.90;50.50;;;;;;4950875;28;89929;-49
2022/08/13 06:38:40;;;;;;;62.90;51.58;;;26.90;50.50;;;;;;4958024;28;89907;-51
2022/08/13 06:41:06;;;;;;;;;;;26.90;50.50;;;;;;4948820;28;91098;-48
2022/08/13 06:43:39;;;;;;;62.65;51.75;;;26.90;50.50;;;;;;4952215;28;91711;-52
2022/08/13 06:46:05;;;;;;;62.72;51.53;;;26.90;50.40;;;;;;4950751;28;89709;-54
2022/08/13 06:48:33;;;;;;;62.67;51.35;;;26.90;50.40;;;;;;4949525;28;93845;-53
2022/08/13 06:50:59;;;;;;;62.20;51.50;;;26.90;50.40;;;;;;4945166;28;91212;-50
2022/08/13 06:53:26;;;;;;;62.65;51.58;;;27.00;50.40;;;;;;4944659;28;95578;-53
2022/08/13 06:55:52;;;;;;;62.40;51.55;;;27.00;50.40;;;;;;4954529;28;89458;-53
2022/08/13 06:58:25;;;;;;;62.75;51.53;;;27.00;50.40;;;;;;4956502;28;96323;-49
2022/08/13 07:00:53;;;;;;;62.65;51.45;;;27.00;50.30;;;;;;4952031;28;91025;-48
2022/08/13 07:03:19;;;;;;;62.47;51.42;;;27.00;50.40;;;;;;4944470;28;90867;-53
2022/08/13 07:05:46;;;;;;;62.45;51.28;;;27.00;50.20;;;;;;4943536;28;90428;-47
2022/08/13 07:08:12;;;;;;;62.88;51.70;;;27.00;50.20;;;;;;4939485;28;92613;-50
2022/08/13 07:10:43;;;;;;;62.67;51.53;;;27.00;50.00;;;;;;4944746;28;93476;-54
2022/08/13 07:13:09;;;;;;;62.45;51.53;;;27.00;50.00;;;;;;4942688;28;89799;-53
2022/08/13 07:15:36;;;;;;;62.33;51.55;;;27.00;50.00;;;;;;4947972;28;89969;-49
2022/08/13 07:18:03;;;;;;;62.60;51.55;;;27.10;50.20;;;;;;4943378;28;92042;-48
2022/08/13 07:20:31;;;;;;;62.20;51.47;;;27.10;50.20;;;;;;4945565;28;93738;-54
2022/08/13 07:22:57;;;;;;;62.60;51.33;;;27.10;50.10;;;;;;4938313;28;89816;-52
2022/08/13 07:25:30;;;;;;;64.75;52.13;;;27.20;50.00;;;;;;4950666;28;93779;-59
2022/08/13 07:27:58;;;;;;;73.95;53.65;;;27.00;42.90;;;;;;4948993;28;90698;-59
2022/08/13 07:30:24;;;;;;;68.28;52.22;;;26.90;42.60;;;;;;4949690;28;89958;-59
2022/08/13 07:32:51;;;;;;;81.70;54.40;;;26.80;41.20;;;;;;4943786;28;90798;-60
2022/08/13 07:35:17;;;;;;;73.38;53.60;;;26.80;42.50;;;;;;4953429;28;89324;-59
2022/08/13 07:37:43;;;;;;;67.13;52.70;;;26.70;42.40;;;;;;4944076;28;90729;-59
2022/08/13 07:40:09;;;;;;;68.60;53.20;;;26.70;41.00;;;;;;4950206;28;95566;-60
2022/08/13 07:42:38;;;;;;;68.93;52.72;;;26.70;41.00;;;;;;4944693;28;92433;-53
2022/08/13 07:45:05;;;;;;;67.15;53.45;;;26.70;41.20;;;;;;4943742;28;90490;-55
2022/08/13 07:47:32;;;;;;;69.63;53.35;;;26.80;42.50;;;;;;4936382;28;90849;-54
2022/08/13 07:50:01;;;;;;;70.50;53.33;;;26.90;42.70;;;;;;4953313;28;91353;-53
2022/08/13 07:52:29;;;;;;;67.97;53.50;;;26.90;43.20;;;;;;4950280;28;91416;-54
2022/08/13 07:54:55;;;;;;;71.50;53.20;;;26.90;43.50;;;;;;4954051;28;89653;-56
2022/08/13 07:57:25;;;;;;;68.90;52.83;;;26.90;43.50;;;;;;4936609;28;92694;-52
2022/08/13 07:59:51;;;;;;;69.63;53.10;;;27.00;43.20;;;;;;4942688;28;90753;-53
2022/08/13 08:02:18;;;;;;;69.15;53.42;;;27.00;43.70;;;;;;4930168;28;93215;-52
2022/08/13 08:04:44;;;;;;;71.18;52.88;;;27.00;43.00;;;;;;4957080;28;89987;-54
2022/08/13 08:07:12;;;;;;;69.22;52.85;;;27.00;42.90;;;;;;4951922;28;90989;-54
2022/08/13 08:09:38;;;;;;;65.72;52.55;;;27.00;42.80;;;;;;4957924;28;91145;-55
2022/08/13 08:14:50;;;;;;;69.53;52.67;;;27.00;42.50;;;;;;4945397;28;92179;-52
2022/08/13 08:17:17;;;;;;;65.63;52.58;;;27.10;42.40;;;;;;4950084;28;90502;-55
2022/08/13 08:19:44;;;;;;;65.55;52.55;;;27.10;42.20;;;;;;4951760;28;89880;-54
2022/08/13 08:22:15;;;;;;;66.85;52.50;;;27.20;42.10;;;;;;4950700;28;90059;-55
2022/08/13 08:24:47;;;;;;;66.15;52.55;;;27.20;42.00;;;;;;4955797;28;89587;-52
2022/08/13 08:27:16;;;;;;;66.43;52.50;;;27.20;41.80;;;;;;4950658;28;90622;-56
2022/08/13 08:29:44;;;;;;;67.85;52.92;;;27.20;41.70;;;;;;4954900;28;92200;-52
2022/08/13 08:32:12;;;;;;;67.05;52.72;;;27.30;41.60;;;;;;4957483;28;91092;-50
2022/08/13 08:34:40;;;;;;;68.95;52.78;;;27.30;41.50;;;;;;4951606;28;89889;-53
2022/08/13 08:37:06;;;;;;;65.53;52.80;;;27.30;41.40;;;;;;4950222;28;89983;-54
2022/08/13 08:42:38;;;;;;;65.25;52.78;;;27.40;41.10;;;;;;4952322;28;90779;-53
2022/08/13 08:45:12;;;;;;;66.72;52.58;;;27.40;41.00;;;;;;4953006;28;90101;-56
2022/08/13 08:47:37;;;;;;;67.38;52.47;;;27.50;41.00;;;;;;4955384;28;89953;-55
2022/08/13 08:50:05;;;;;;;64.40;52.15;;;27.50;40.90;;;;;;4961194;28;90077;-53
2022/08/13 08:55:16;;;;;;;67.13;52.63;;;27.60;40.70;;;;;;4947957;28;90702;-55
2022/08/13 08:57:46;;;;;;;67.63;52.83;;;27.60;40.60;;;;;;4946153;28;94200;-54
2022/08/13 09:00:18;;;;;;;66.13;52.50;;;27.60;40.60;;;;;;4960249;28;91016;-56
2022/08/13 09:02:47;;;;;;;65.05;52.75;;;27.70;40.60;;;;;;4952119;28;89664;-55
2022/08/13 09:05:16;;;;;;;69.05;52.80;;;27.70;40.50;;;;;;4947450;28;92118;-53
2022/08/13 09:07:46;;;;;;;65.15;52.53;;;27.70;40.50;;;;;;4956327;28;89842;-55
2022/08/13 09:10:14;;;;;;;66.70;52.72;;;27.80;40.50;;;;;;4960118;28;89912;-55
2022/08/13 09:12:42;;;;;;;66.13;52.95;;;27.70;40.40;;;;;;4947227;28;89942;-50
2022/08/13 09:15:10;;;;;;;67.32;52.88;;;27.80;40.50;;;;;;4945835;28;89311;-53
2022/08/13 09:17:37;;;;;;;67.13;52.60;;;27.80;40.50;;;;;;4948205;28;90284;-54
2022/08/13 09:20:12;;;;;;;64.53;52.58;;;27.90;40.50;;;;;;4953228;28;90952;-55
2022/08/13 09:22:40;;;;;;;65.95;52.33;;;27.80;40.40;;;;;;4956779;28;96266;-55
2022/08/13 09:25:06;;;;;;;67.20;52.85;;;27.90;40.50;;;;;;4954457;28;95625;-53
2022/08/13 09:27:34;;;;;;;65.90;52.60;;;27.90;40.50;;;;;;4960968;28;90962;-53
2022/08/13 09:30:04;;;;;;;65.45;52.85;;;27.90;40.40;;;;;;4961045;28;95183;-56
2022/08/13 09:32:35;;;;;;;65.30;52.90;;;27.90;40.50;;;;;;4956815;28;90034;-54
2022/08/13 09:35:04;;;;;;;66.03;52.78;;;27.90;40.50;;;;;;4950662;28;90569;-55
2022/08/13 09:37:31;;;;;;;65.22;52.83;;;27.90;40.40;;;;;;4953851;28;90233;-54
2022/08/13 09:40:07;;;;;;;64.78;52.55;;;28.00;40.40;;;;;;4956921;28;90022;-55
2022/08/13 09:42:57;;;;;;;66.32;52.47;;;28.00;40.40;;;;;;4956124;28;89993;-53
2022/08/13 09:45:27;;;;;;;65.57;52.70;;;28.00;40.40;;;;;;4959914;28;89971;-55
2022/08/13 09:47:54;;;;;;;64.55;52.47;;;28.00;40.40;;;;;;4953565;28;91448;-54
2022/08/13 09:50:21;;;;;;;64.40;52.78;;;28.00;40.30;;;;;;4951138;28;90559;-54
2022/08/13 09:52:49;;;;;;;65.03;52.65;;;28.00;40.40;;;;;;4952919;28;93929;-54
2022/08/13 09:55:14;;;;;;;65.25;52.85;;;28.00;40.40;;;;;;4953185;28;90274;-54
2022/08/13 09:57:50;;;;;;;64.55;52.90;;;28.10;40.50;;;;;;4951818;28;89727;-56
2022/08/13 10:00:23;;;;;;;64.70;52.63;;;28.00;40.60;;;;;;4950021;28;90145;-51
2022/08/13 10:02:52;;;;;;;64.47;52.55;;;28.00;41.00;;;;;;4956420;28;89444;-53
2022/08/13 10:05:18;;;;;;;64.50;52.60;;;27.80;41.80;;;;;;4959508;28;89720;-51
2022/08/13 10:07:45;;;;;;;65.82;52.67;;;27.70;41.60;;;;;;4958205;28;91094;-52
2022/08/13 10:10:12;;;;;;;65.72;52.65;;;27.60;42.00;;;;;;4949304;28;90076;-53
2022/08/13 10:12:38;;;;;;;64.88;52.80;;;27.60;42.30;;;;;;4954192;28;90545;-50
2022/08/13 10:15:04;;;;;;;64.28;52.50;;;27.60;42.50;;;;;;4951766;28;91558;-52
2022/08/13 10:17:45;;;;;;;65.25;52.63;;;27.60;42.70;;;;;;4949372;28;91693;-52
2022/08/13 10:20:11;;;;;;;65.07;52.35;;;27.60;42.90;;;;;;4950724;28;90776;-48
2022/08/13 10:22:37;;;;;;;65.20;52.97;;;27.60;43.00;;;;;;4962250;28;90255;-51
2022/08/13 10:25:03;;;;;;;65.15;52.83;;;27.60;43.20;;;;;;4944678;28;90900;-51
2022/08/13 10:27:29;;;;;;;66.03;52.65;;;27.60;43.30;;;;;;4954713;28;92156;-49
2022/08/13 10:29:54;;;;;;;65.47;52.92;;;27.60;43.50;;;;;;4950624;28;89950;-49
2022/08/13 10:32:20;;;;;;;65.45;52.58;;;27.60;43.60;;;;;;4951591;28;91340;-51
2022/08/13 10:34:46;;;;;;;65.45;52.78;;;27.60;43.70;;;;;;4959519;28;90957;-53
2022/08/13 10:37:12;;;;;;;65.13;52.38;;;27.60;43.80;;;;;;4949563;28;95630;-52
2022/08/13 10:39:38;;;;;;;63.97;52.25;;;27.60;44.00;;;;;;4950794;28;95879;-51
2022/08/13 10:42:04;;;;;;;64.80;52.38;;;27.50;44.00;;;;;;4956230;28;91133;-52
2022/08/13 10:44:30;;;;;;;64.40;52.50;;;27.60;44.20;;;;;;4952976;28;89994;-52
2022/08/13 10:46:56;;;;;;;65.63;52.88;;;27.50;44.20;;;;;;4953437;28;90330;-51
2022/08/13 10:49:22;;;;;;;65.18;52.45;;;27.60;44.60;;;;;;4946881;28;91113;-52
2022/08/13 10:51:48;;;;;;;64.88;52.85;;;27.60;44.40;;;;;;4953810;28;89959;-49
2022/08/13 10:54:13;;;;;;;64.65;52.58;;;27.60;44.50;;;;;;4958625;28;89484;-49
2022/08/13 10:56:39;;;;;;;65.20;52.92;;;27.60;44.50;;;;;;4947952;28;90085;-52
2022/08/13 10:59:05;;;;;;;64.32;52.55;;;27.60;44.60;;;;;;4951969;28;90324;-49
2022/08/13 11:01:31;;;;;;;64.90;52.75;;;27.60;44.70;;;;;;4956171;28;91553;-51
2022/08/13 11:04:01;;;;;;;64.50;52.60;;;27.60;44.80;;;;;;4949279;28;91421;-49
2022/08/13 11:06:27;;;;;;;64.82;52.60;;;27.60;44.80;;;;;;4946288;28;89833;-49
2022/08/13 11:08:57;;;;;;;64.47;52.70;;;27.70;44.90;;;;;;4953423;28;89484;-50
2022/08/13 11:11:23;;;;;;;67.70;52.45;;;27.70;45.00;;;;;;4947731;28;91308;-49
2022/08/13 11:13:49;;;;;;;65.63;52.63;;;27.70;45.10;;;;;;4952119;28;90979;-52
2022/08/13 11:19:05;;;;;;;64.57;52.63;;;27.70;45.10;;;;;;4963979;28;88965;-49
2022/08/13 11:21:30;;;;;;;64.70;52.78;;;27.70;45.20;;;;;;4951184;28;89982;-51
2022/08/13 11:23:56;;;;;;;64.47;52.80;;;27.70;45.20;;;;;;4958289;28;89855;-51
2022/08/13 11:26:21;;;;;;;66.80;52.63;;;27.70;45.30;;;;;;4942650;28;91604;-51
2022/08/13 11:28:47;;;;;;;64.63;52.75;;;27.70;45.30;;;;;;4946310;28;91622;-53
2022/08/13 11:31:13;;;;;;;64.55;52.65;;;27.70;45.30;;;;;;4942658;28;89785;-53
2022/08/13 11:33:38;;;;;;;64.30;52.53;;;27.70;45.50;;;;;;4950069;28;94397;-50
2022/08/13 11:36:04;;;;;;;64.60;52.55;;;27.70;45.50;;;;;;4944994;28;90122;-49
2022/08/13 11:38:30;;;;;;;65.18;52.67;;;27.70;45.50;;;;;;4952564;28;90390;-50
2022/08/13 11:40:58;;;;;;;64.15;52.45;;;27.70;45.50;;;;;;4954314;28;90163;-54
2022/08/13 11:43:27;;;;;;;64.72;52.60;;;27.80;45.70;;;;;;4945274;28;92508;-51
2022/08/13 11:45:53;;;;;;;64.43;52.47;;;27.70;45.40;;;;;;4939638;28;91713;-52
2022/08/13 11:48:19;;;;;;;64.97;52.75;;;27.70;45.40;;;;;;4942436;28;90748;-51
2022/08/13 11:50:48;;;;;;;64.95;53.00;;;27.80;45.60;;;;;;4938482;28;92711;-48
2022/08/13 11:53:14;;;;;;;65.53;52.83;;;27.70;45.50;;;;;;4954086;28;89973;-49
2022/08/13 11:55:40;;;;;;;66.05;53.08;;;27.70;45.60;;;;;;4941321;28;90064;-49
2022/08/13 11:58:07;;;;;;;65.78;53.03;;;27.70;45.60;;;;;;4945183;28;90343;-51
2022/08/13 12:00:38;;;;;;;65.47;53.33;;;27.70;45.70;;;;;;4953947;28;89898;-52
2022/08/13 12:03:04;;;;;;;68.90;53.25;;;27.70;45.80;;;;;;4954992;28;89701;-48
2022/08/13 12:05:30;;;;;;;65.97;53.45;;;27.70;45.80;;;;;;4949402;28;91438;-47
2022/08/13 12:07:56;;;;;;;66.43;53.28;;;27.80;46.00;;;;;;4944188;28;91739;-50
2022/08/13 12:10:22;;;;;;;67.30;53.10;;;27.80;46.00;;;;;;4959735;28;90838;-49
2022/08/13 12:12:48;;;;;;;67.28;53.38;;;27.70;46.00;;;;;;4951603;28;90366;-49
2022/08/13 12:15:15;;;;;;;67.38;53.20;;;27.80;46.20;;;;;;4964212;28;91610;-51
2022/08/13 12:17:45;;;;;;;66.38;53.30;;;27.70;46.10;;;;;;4949090;28;90098;-50
2022/08/13 12:20:16;;;;;;;65.72;53.10;;;27.80;46.20;;;;;;4954835;28;90153;-51
2022/08/13 12:22:42;;;;;;;65.90;53.20;;;27.80;46.30;;;;;;4954083;28;90303;-50
2022/08/13 12:25:09;;;;;;;65.57;53.35;;;27.80;46.30;;;;;;4949225;28;93704;-51
2022/08/13 12:27:35;;;;;;;65.85;53.13;;;27.80;46.30;;;;;;4947525;28;90754;-52
2022/08/13 12:30:02;;;;;;;67.90;52.90;;;27.80;46.40;;;;;;4954479;28;89912;-51
2022/08/13 12:32:28;;;;;;;66.13;53.17;;;27.80;46.40;;;;;;4952189;28;89195;-47
2022/08/13 12:34:53;;;;;;;66.60;53.00;;;27.80;46.40;;;;;;4959468;28;90269;-48
2022/08/13 12:37:21;;;;;;;66.57;52.97;;;27.80;46.50;;;;;;4950377;28;91839;-50
2022/08/13 12:39:47;;;;;;;65.20;52.95;;;27.80;46.50;;;;;;4942697;28;91002;-53
2022/08/13 12:42:12;;;;;;;66.00;52.92;;;27.80;46.50;;;;;;4942289;28;90199;-51
2022/08/13 12:44:38;;;;;;;66.10;53.25;;;27.80;46.50;;;;;;4945060;28;90665;-53
2022/08/13 12:47:04;;;;;;;65.65;53.08;;;27.80;46.60;;;;;;4951142;28;90158;-52
2022/08/13 12:49:30;;;;;;;66.13;52.92;;;27.80;46.70;;;;;;4939618;28;90534;-52
2022/08/13 12:51:56;;;;;;;66.43;53.22;;;27.90;46.60;;;;;;4941323;28;90034;-51
2022/08/13 12:54:26;;;;;;;66.43;53.10;;;27.80;46.50;;;;;;4949265;28;90080;-48